Time;durP1;ratioP1;P1;durP2;ratioP2;P2;SDS_P1;SDS_P2;PMS_P1;PMS_P2;Temp;Humidity;BMP_temperature;BMP_pressure;BME280_temperature;BME280_humidity;BME280_pressure;Samples;Min_cycle;Max_cycle;Signal;HPM_P1;HPM_P2
2023/07/17 00:02:24;;;;;;;4.57;2.80;;;;;;;;;;5033923;28;20216;-74
2023/07/17 00:05:27;;;;;;;3.13;2.80;;;;;;;;;;5033319;28;20180;-74
2023/07/17 00:08:31;;;;;;;5.07;3.23;;;;;;;;;;5034005;28;20212;-74
2023/07/17 00:11:36;;;;;;;6.90;3.20;;;;;;;;;;5047504;22;20237;-73
2023/07/17 00:14:40;;;;;;;4.10;3.27;;;;;;;;;;5033862;28;20177;-72
2023/07/17 00:17:44;;;;;;;4.87;3.47;;;;;;;;;;5034058;28;20203;-72
2023/07/17 00:20:48;;;;;;;4.70;3.50;;;;;;;;;;5021729;28;20224;-72
2023/07/17 00:23:52;;;;;;;3.90;3.00;;;;;;;;;;5022021;28;20181;-72
2023/07/17 00:26:56;;;;;;;3.90;3.50;;;;;;;;;;5021646;28;20185;-72
2023/07/17 00:30:01;;;;;;;5.00;3.70;;;;;;;;;;5033652;28;20181;-72
2023/07/17 00:33:05;;;;;;;5.63;3.37;;;;;;;;;;5021247;28;20192;-72
2023/07/17 00:36:11;;;;;;;5.00;3.77;;;;;;;;;;5033525;28;20176;-72
2023/07/17 00:39:15;;;;;;;5.00;3.67;;;;;;;;;;5033703;28;20181;-72
2023/07/17 00:42:19;;;;;;;5.37;3.40;;;;;;;;;;5021318;28;20221;-72
2023/07/17 00:45:25;;;;;;;5.03;3.67;;;;;;;;;;5033290;28;20181;-72
2023/07/17 00:48:29;;;;;;;4.83;3.50;;;;;;;;;;5010527;28;20169;-71
2023/07/17 00:51:34;;;;;;;3.57;3.27;;;;;;;;;;5021119;28;20224;-72
2023/07/17 00:54:41;;;;;;;6.67;3.63;;;;;;;;;;5021631;28;20181;-72
2023/07/17 00:57:51;;;;;;;5.43;3.33;;;;;;;;;;5020971;28;20180;-72
2023/07/17 01:00:55;;;;;;;9.30;4.17;;;;;;;;;;5009783;28;20217;-74
2023/07/17 01:04:03;;;;;;;6.53;3.93;;;;;;;;;;5009639;28;20200;-73
2023/07/17 01:07:07;;;;;;;9.07;4.30;;;;;;;;;;5033033;28;20181;-73
2023/07/17 01:10:11;;;;;;;7.93;4.53;;;;;;;;;;5021040;28;20173;-73
2023/07/17 01:13:16;;;;;;;5.83;4.40;;;;;;;;;;5021172;28;20172;-73
2023/07/17 01:16:20;;;;;;;6.30;4.20;;;;;;;;;;5032967;28;20201;-72
2023/07/17 01:19:24;;;;;;;7.00;4.37;;;;;;;;;;5020766;28;20197;-72
2023/07/17 01:22:31;;;;;;;5.93;3.80;;;;;;;;;;5020835;28;20220;-72
2023/07/17 01:25:35;;;;;;;5.30;3.77;;;;;;;;;;5024790;28;20172;-72
2023/07/17 01:28:41;;;;;;;5.17;4.23;;;;;;;;;;5024722;28;20173;-72
2023/07/17 01:31:46;;;;;;;5.30;4.27;;;;;;;;;;5013443;28;20212;-72
2023/07/17 01:34:51;;;;;;;5.47;4.33;;;;;;;;;;5013645;28;20628;-72
2023/07/17 01:37:55;;;;;;;5.83;4.23;;;;;;;;;;5025204;28;20176;-72
2023/07/17 01:40:59;;;;;;;6.10;4.30;;;;;;;;;;5036463;28;20211;-72
2023/07/17 01:44:04;;;;;;;4.83;4.30;;;;;;;;;;5013174;28;20201;-72
2023/07/17 01:47:08;;;;;;;8.00;4.40;;;;;;;;;;5036791;28;20181;-72
2023/07/17 01:50:12;;;;;;;6.97;5.27;;;;;;;;;;5024523;28;20181;-72
2023/07/17 01:53:20;;;;;;;5.63;4.97;;;;;;;;;;5024620;28;20176;-73
2023/07/17 01:56:25;;;;;;;7.73;4.60;;;;;;;;;;5036692;28;20528;-72
2023/07/17 01:59:30;;;;;;;5.63;4.70;;;;;;;;;;5024198;28;20177;-72
2023/07/17 02:02:34;;;;;;;5.40;4.90;;;;;;;;;;5023866;28;20225;-72
2023/07/17 02:05:38;;;;;;;5.73;3.93;;;;;;;;;;5024250;28;20523;-72
2023/07/17 02:08:42;;;;;;;5.13;4.40;;;;;;;;;;5001696;28;20516;-71
2023/07/17 02:11:46;;;;;;;7.80;4.33;;;;;;;;;;5036078;28;20706;-72
2023/07/17 02:14:50;;;;;;;5.60;4.33;;;;;;;;;;5036157;28;20196;-72
2023/07/17 02:17:54;;;;;;;10.53;5.30;;;;;;;;;;5023857;28;20536;-72
2023/07/17 02:21:00;;;;;;;5.80;5.20;;;;;;;;;;5035872;28;20217;-72
2023/07/17 02:24:04;;;;;;;11.50;5.00;;;;;;;;;;5012667;28;20173;-73
2023/07/17 02:27:08;;;;;;;7.90;5.07;;;;;;;;;;5012491;28;20565;-72
2023/07/17 02:30:13;;;;;;;8.77;4.87;;;;;;;;;;5012382;28;20687;-72
2023/07/17 02:33:17;;;;;;;6.13;4.77;;;;;;;;;;5023882;28;20173;-72
2023/07/17 02:36:22;;;;;;;7.67;4.27;;;;;;;;;;5035161;28;20185;-72
2023/07/17 02:39:26;;;;;;;7.00;4.80;;;;;;;;;;5012418;28;20181;-72
2023/07/17 02:42:30;;;;;;;5.10;4.60;;;;;;;;;;5035658;28;20224;-72
2023/07/17 02:45:36;;;;;;;6.27;4.70;;;;;;;;;;5023606;28;20181;-72
2023/07/17 02:48:42;;;;;;;9.30;4.90;;;;;;;;;;5035428;28;20197;-72
2023/07/17 02:51:46;;;;;;;4.83;4.07;;;;;;;;;;5023143;28;20212;-72
2023/07/17 02:54:50;;;;;;;8.37;4.57;;;;;;;;;;5023148;28;20180;-72
2023/07/17 02:57:54;;;;;;;4.70;4.20;;;;;;;;;;5023098;28;20181;-72
2023/07/17 03:00:58;;;;;;;5.17;4.20;;;;;;;;;;5022923;28;20220;-72
2023/07/17 03:04:03;;;;;;;5.80;3.83;;;;;;;;;;5023248;28;20639;-72
2023/07/17 03:07:07;;;;;;;5.60;4.10;;;;;;;;;;5022904;28;20181;-72
2023/07/17 03:10:12;;;;;;;5.73;4.50;;;;;;;;;;5035177;28;20655;-72
2023/07/17 03:13:16;;;;;;;4.57;3.77;;;;;;;;;;5022708;28;20173;-72
2023/07/17 03:16:20;;;;;;;5.00;4.07;;;;;;;;;;5034890;28;20197;-72
2023/07/17 03:19:25;;;;;;;4.93;4.00;;;;;;;;;;5022910;28;20218;-71
2023/07/17 03:22:29;;;;;;;6.03;4.20;;;;;;;;;;5022500;28;20228;-72
2023/07/17 03:25:33;;;;;;;6.00;4.70;;;;;;;;;;5023083;28;20181;-72
2023/07/17 03:28:37;;;;;;;5.20;4.70;;;;;;;;;;5022508;28;20529;-72
2023/07/17 03:31:41;;;;;;;6.73;4.70;;;;;;;;;;5022409;28;20224;-72
2023/07/17 03:34:45;;;;;;;5.73;4.17;;;;;;;;;;5034518;28;20177;-72
2023/07/17 03:37:50;;;;;;;10.60;4.87;;;;;;;;;;5034494;28;20172;-72
2023/07/17 03:40:56;;;;;;;6.30;4.17;;;;;;;;;;5022358;28;20216;-72
2023/07/17 03:44:02;;;;;;;7.67;4.43;;;;;;;;;;4999838;28;20632;-72
2023/07/17 03:47:06;;;;;;;7.57;4.73;;;;;;;;;;5034558;28;20192;-72
2023/07/17 03:50:12;;;;;;;7.20;4.57;;;;;;;;;;5010770;28;20201;-72
2023/07/17 03:53:17;;;;;;;5.07;4.57;;;;;;;;;;5022073;28;20169;-71
2023/07/17 03:56:21;;;;;;;6.37;4.70;;;;;;;;;;5010994;28;20176;-72
2023/07/17 03:59:25;;;;;;;6.53;4.33;;;;;;;;;;5034075;28;20177;-71
2023/07/17 04:02:30;;;;;;;5.97;4.30;;;;;;;;;;5021778;28;20225;-71
2023/07/17 04:05:34;;;;;;;5.33;4.10;;;;;;;;;;5010482;28;20200;-72
2023/07/17 04:08:39;;;;;;;5.33;4.23;;;;;;;;;;5021487;28;20201;-71
2023/07/17 04:11:46;;;;;;;7.90;4.17;;;;;;;;;;5021416;28;20220;-72
2023/07/17 04:14:52;;;;;;;7.30;4.43;;;;;;;;;;5010566;28;20173;-72
2023/07/17 04:17:56;;;;;;;5.40;4.63;;;;;;;;;;5010414;28;20181;-72
2023/07/17 04:21:00;;;;;;;7.03;4.37;;;;;;;;;;5010140;28;20223;-72
2023/07/17 04:24:04;;;;;;;5.83;4.83;;;;;;;;;;5021210;28;20220;-71
2023/07/17 04:27:19;;;;;;;7.73;5.00;;;;;;;;;;5021227;28;20188;-72
2023/07/17 04:30:25;;;;;;;4.63;4.17;;;;;;;;;;5021007;28;20181;-72
2023/07/17 04:33:32;;;;;;;6.80;4.53;;;;;;;;;;5021094;28;20177;-71
2023/07/17 04:36:37;;;;;;;6.30;5.07;;;;;;;;;;5009842;28;20177;-72
2023/07/17 04:39:42;;;;;;;6.57;4.77;;;;;;;;;;5021326;28;20180;-72
2023/07/17 04:42:46;;;;;;;5.40;4.90;;;;;;;;;;5020970;28;20205;-72
2023/07/17 04:45:51;;;;;;;5.57;4.90;;;;;;;;;;5021050;28;20173;-72
2023/07/17 04:48:58;;;;;;;5.23;4.50;;;;;;;;;;5021172;28;20177;-72
2023/07/17 04:52:03;;;;;;;7.23;5.47;;;;;;;;;;5009274;28;20216;-72
2023/07/17 04:55:07;;;;;;;7.53;4.63;;;;;;;;;;5020796;28;20177;-72
2023/07/17 04:58:13;;;;;;;12.10;6.40;;;;;;;;;;5009053;28;20176;-72
2023/07/17 05:01:18;;;;;;;12.87;5.20;;;;;;;;;;5020812;28;20208;-74
2023/07/17 05:04:22;;;;;;;10.63;6.07;;;;;;;;;;5009382;28;20189;-73
2023/07/17 05:07:27;;;;;;;6.33;4.60;;;;;;;;;;5021259;28;20620;-73
2023/07/17 05:10:31;;;;;;;4.63;4.17;;;;;;;;;;5009390;28;20201;-73
2023/07/17 05:13:36;;;;;;;7.07;4.83;;;;;;;;;;5020918;28;20169;-72
2023/07/17 05:16:41;;;;;;;9.40;4.10;;;;;;;;;;5009415;28;20181;-72
2023/07/17 05:19:45;;;;;;;7.17;4.13;;;;;;;;;;5009241;28;20181;-72
2023/07/17 05:22:49;;;;;;;5.87;4.93;;;;;;;;;;5020472;28;20212;-72
2023/07/17 05:25:57;;;;;;;8.10;4.47;;;;;;;;;;5020720;28;20208;-72
2023/07/17 05:29:04;;;;;;;6.10;4.10;;;;;;;;;;5020603;28;20636;-72
2023/07/17 05:32:08;;;;;;;5.60;4.30;;;;;;;;;;5009235;28;20220;-72
2023/07/17 05:35:12;;;;;;;7.03;4.10;;;;;;;;;;5009284;28;20177;-72
2023/07/17 05:38:17;;;;;;;8.00;4.43;;;;;;;;;;5020778;28;20176;-72
2023/07/17 05:41:23;;;;;;;5.30;4.20;;;;;;;;;;5020340;28;20220;-72
2023/07/17 05:44:27;;;;;;;6.13;4.13;;;;;;;;;;5008947;28;20208;-72
2023/07/17 05:47:31;;;;;;;4.20;3.40;;;;;;;;;;5020618;28;20201;-72
2023/07/17 05:50:35;;;;;;;4.93;3.83;;;;;;;;;;5032309;28;20537;-73
2023/07/17 05:53:39;;;;;;;8.87;5.27;;;;;;;;;;5020490;28;20173;-74
2023/07/17 05:56:44;;;;;;;9.57;4.93;;;;;;;;;;5009406;28;20181;-75
2023/07/17 05:59:48;;;;;;;5.83;4.57;;;;;;;;;;5004661;28;20180;-74
2023/07/17 06:02:52;;;;;;;7.47;4.83;;;;;;;;;;5020026;28;20548;-73
2023/07/17 06:05:56;;;;;;;8.00;4.53;;;;;;;;;;5032603;28;20180;-73
2023/07/17 06:09:01;;;;;;;7.40;4.30;;;;;;;;;;5020629;28;20177;-72
2023/07/17 06:12:06;;;;;;;5.93;4.20;;;;;;;;;;5034909;22;20287;-75
2023/07/17 06:15:13;;;;;;;9.73;4.63;;;;;;;;;;5004207;28;20170;-74
2023/07/17 06:18:17;;;;;;;4.83;4.03;;;;;;;;;;5016269;28;20178;-74
2023/07/17 06:21:21;;;;;;;8.83;4.13;;;;;;;;;;5004053;28;20217;-75
2023/07/17 06:24:25;;;;;;;5.83;4.13;;;;;;;;;;5016062;28;20221;-74
2023/07/17 06:27:29;;;;;;;6.53;4.10;;;;;;;;;;5004330;28;20185;-75
2023/07/17 06:30:33;;;;;;;6.67;3.93;;;;;;;;;;5016225;28;20521;-75
2023/07/17 06:33:37;;;;;;;6.40;3.63;;;;;;;;;;5004176;28;20169;-75
2023/07/17 06:36:41;;;;;;;7.97;4.30;;;;;;;;;;5015998;28;20525;-75
2023/07/17 06:39:45;;;;;;;7.93;4.20;;;;;;;;;;5015845;28;20186;-74
2023/07/17 06:42:49;;;;;;;5.57;4.13;;;;;;;;;;5015960;28;20209;-75
2023/07/17 06:45:54;;;;;;;7.57;4.07;;;;;;;;;;5015732;28;20181;-75
2023/07/17 06:48:58;;;;;;;6.63;3.37;;;;;;;;;;4992673;28;20181;-75
2023/07/17 06:52:02;;;;;;;5.57;3.53;;;;;;;;;;5003413;28;20217;-75
2023/07/17 06:55:08;;;;;;;7.77;4.07;;;;;;;;;;5015506;28;20656;-75
2023/07/17 06:58:12;;;;;;;6.20;3.40;;;;;;;;;;4992837;28;20173;-75
2023/07/17 07:01:16;;;;;;;8.57;3.57;;;;;;;;;;5015409;28;20221;-75
2023/07/17 07:04:20;;;;;;;7.00;3.47;;;;;;;;;;5003582;28;20213;-75
2023/07/17 07:07:24;;;;;;;5.23;2.93;;;;;;;;;;5015568;28;20659;-75
2023/07/17 07:10:28;;;;;;;4.87;3.87;;;;;;;;;;4992159;28;20660;-74
2023/07/17 07:13:33;;;;;;;4.93;3.13;;;;;;;;;;5015359;28;20268;-75
2023/07/17 07:16:37;;;;;;;7.73;3.80;;;;;;;;;;5003351;28;20177;-75
2023/07/17 07:19:42;;;;;;;4.30;3.10;;;;;;;;;;5003376;28;20190;-75
2023/07/17 07:22:46;;;;;;;4.93;3.47;;;;;;;;;;5014973;28;20628;-75
2023/07/17 07:25:50;;;;;;;5.63;3.10;;;;;;;;;;4992008;28;20185;-75
2023/07/17 07:28:54;;;;;;;5.73;3.43;;;;;;;;;;5015168;28;20177;-75
2023/07/17 07:31:59;;;;;;;4.50;3.27;;;;;;;;;;5014874;28;20213;-75
2023/07/17 07:35:03;;;;;;;5.63;2.93;;;;;;;;;;5015079;28;20182;-75
2023/07/17 07:38:07;;;;;;;6.47;3.40;;;;;;;;;;5015016;28;20181;-75
2023/07/17 07:41:11;;;;;;;6.20;3.07;;;;;;;;;;5014905;28;20566;-75
2023/07/17 07:44:16;;;;;;;9.97;3.27;;;;;;;;;;5014847;28;20212;-75
2023/07/17 07:47:20;;;;;;;5.67;3.17;;;;;;;;;;5014867;28;20631;-75
2023/07/17 07:50:24;;;;;;;5.40;3.10;;;;;;;;;;5014479;28;20178;-75
2023/07/17 07:53:28;;;;;;;6.17;3.40;;;;;;;;;;5014734;28;20179;-75
2023/07/17 07:56:33;;;;;;;5.83;2.87;;;;;;;;;;5014416;28;20194;-75
2023/07/17 07:59:37;;;;;;;3.97;2.90;;;;;;;;;;5014315;28;20681;-74
2023/07/17 08:02:41;;;;;;;9.43;2.67;;;;;;;;;;5014254;28;20223;-75
2023/07/17 08:05:45;;;;;;;4.00;2.50;;;;;;;;;;5014434;28;20200;-75
2023/07/17 08:08:50;;;;;;;3.67;2.53;;;;;;;;;;5014305;28;20179;-75
2023/07/17 08:11:55;;;;;;;6.10;2.58;;;;;;;;;;5014216;28;20220;-75
2023/07/17 08:14:59;;;;;;;8.32;2.40;;;;;;;;;;5014157;28;20634;-75
2023/07/17 08:18:03;;;;;;;5.05;2.25;;;;;;;;;;5014110;28;20201;-75
2023/07/17 08:21:07;;;;;;;5.15;2.58;;;;;;;;;;5013936;28;20690;-75
2023/07/17 08:24:11;;;;;;;3.83;2.40;;;;;;;;;;5013922;28;20211;-75
2023/07/17 08:27:15;;;;;;;4.43;2.40;;;;;;;;;;5014190;28;20178;-75
2023/07/17 08:30:20;;;;;;;5.22;2.58;;;;;;;;;;5001787;28;20177;-75
2023/07/17 08:33:25;;;;;;;3.22;2.42;;;;;;;;;;5013173;28;20178;-75
2023/07/17 08:36:31;;;;;;;6.20;2.30;;;;;;;;;;5013820;28;20175;-75
2023/07/17 08:39:35;;;;;;;3.85;2.20;;;;;;;;;;5013980;28;20180;-75
2023/07/17 08:42:43;;;;;;;8.20;2.70;;;;;;;;;;5013533;28;20217;-76
2023/07/17 08:45:50;;;;;;;4.85;2.47;;;;;;;;;;5002130;28;20188;-75
2023/07/17 08:48:56;;;;;;;6.20;2.60;;;;;;;;;;5013886;28;20174;-75
2023/07/17 08:52:03;;;;;;;5.28;2.30;;;;;;;;;;5013485;28;20209;-75
2023/07/17 08:55:08;;;;;;;4.70;2.30;;;;;;;;;;5013782;28;20278;-75
2023/07/17 08:58:13;;;;;;;5.28;2.88;;;;;;;;;;5013520;28;20181;-75
2023/07/17 09:01:17;;;;;;;3.22;2.20;;;;;;;;;;5013535;28;20696;-75
2023/07/17 09:04:22;;;;;;;7.50;2.30;;;;;;;;;;5001231;28;20222;-75
2023/07/17 09:07:26;;;;;;;5.05;2.45;;;;;;;;;;5013358;28;20525;-75
2023/07/17 09:10:30;;;;;;;5.10;2.63;;;;;;;;;;5001461;28;20185;-75
2023/07/17 09:13:36;;;;;;;3.83;2.55;;;;;;;;;;5013186;28;20197;-75
2023/07/17 09:16:40;;;;;;;5.20;2.42;;;;;;;;;;5013580;28;20189;-75
2023/07/17 09:19:44;;;;;;;6.25;2.45;;;;;;;;;;5013589;28;20189;-75
2023/07/17 09:22:49;;;;;;;5.60;2.63;;;;;;;;;;5013195;28;20193;-76
2023/07/17 09:25:54;;;;;;;7.93;2.65;;;;;;;;;;4989887;28;20198;-75
2023/07/17 09:28:58;;;;;;;4.30;2.33;;;;;;;;;;5013435;28;20177;-76
2023/07/17 09:32:18;;;;;;;4.53;2.50;;;;;;;;;;5013056;28;20218;-76
2023/07/17 09:35:24;;;;;;;6.32;2.67;;;;;;;;;;5001305;28;20171;-76
2023/07/17 09:38:31;;;;;;;4.60;2.38;;;;;;;;;;5013074;28;20193;-76
2023/07/17 09:41:36;;;;;;;4.10;2.40;;;;;;;;;;5013509;28;20217;-76
2023/07/17 09:44:40;;;;;;;6.43;2.47;;;;;;;;;;5015022;28;20233;-76
2023/07/17 09:47:47;;;;;;;5.40;2.40;;;;;;;;;;5016838;28;20178;-76
2023/07/17 09:50:52;;;;;;;5.70;2.63;;;;;;;;;;5017010;28;20213;-76
2023/07/17 09:53:59;;;;;;;3.53;2.10;;;;;;;;;;5016666;28;20669;-76
2023/07/17 09:57:05;;;;;;;5.10;2.33;;;;;;;;;;5004921;28;20182;-74
2023/07/17 10:00:14;;;;;;;3.55;2.20;;;;;;;;;;5004655;28;20637;-74
2023/07/17 10:03:20;;;;;;;5.07;2.30;;;;;;;;;;5004739;28;20182;-75
2023/07/17 10:06:25;;;;;;;5.43;2.65;;;;;;;;;;5016580;28;20178;-76
2023/07/17 10:09:29;;;;;;;6.95;2.40;;;;;;;;;;5016468;28;20186;-76
2023/07/17 10:12:34;;;;;;;4.05;2.13;;;;;;;;;;5016313;28;20225;-76
2023/07/17 10:15:38;;;;;;;5.28;2.50;;;;;;;;;;5016693;28;20197;-76
2023/07/17 10:18:48;;;;;;;4.13;2.42;;;;;;;;;;5016569;28;20636;-76
2023/07/17 10:21:57;;;;;;;2.80;2.38;;;;;;;;;;5016191;28;20209;-76
2023/07/17 10:25:19;;;;;;;7.47;2.88;;;;;;;;;;5016353;28;20565;-76
2023/07/17 10:28:34;;;;;;;4.22;2.33;;;;;;;;;;5003990;28;20182;-76
2023/07/17 10:31:48;;;;;;;4.90;2.30;;;;;;;;;;5016179;28;20213;-76
2023/07/17 10:34:53;;;;;;;4.30;2.47;;;;;;;;;;5016201;28;20174;-76
2023/07/17 10:38:08;;;;;;;5.22;3.10;;;;;;;;;;5016159;28;20186;-76
2023/07/17 10:41:12;;;;;;;2.92;2.13;;;;;;;;;;5004046;28;20684;-76
2023/07/17 10:44:21;;;;;;;6.28;2.90;;;;;;;;;;5015656;28;20221;-76
2023/07/17 10:47:26;;;;;;;6.40;3.13;;;;;;;;;;5015744;28;20186;-76
2023/07/17 10:50:30;;;;;;;4.50;2.47;;;;;;;;;;5015573;28;20194;-75
2023/07/17 10:53:34;;;;;;;5.63;2.55;;;;;;;;;;5003879;28;20230;-76
2023/07/17 10:56:38;;;;;;;5.18;2.92;;;;;;;;;;5015180;28;20178;-75
2023/07/17 10:59:42;;;;;;;3.42;2.85;;;;;;;;;;5015518;28;20182;-76
2023/07/17 11:02:46;;;;;;;4.55;2.58;;;;;;;;;;5003705;28;20194;-74
2023/07/17 11:05:53;;;;;;;4.32;2.63;;;;;;;;;;5015338;28;20213;-74
2023/07/17 11:08:59;;;;;;;5.55;2.30;;;;;;;;;;5015588;28;20197;-74
2023/07/17 11:12:04;;;;;;;2.45;2.25;;;;;;;;;;5015189;28;20217;-73
2023/07/17 11:15:20;;;;;;;3.88;2.30;;;;;;;;;;5003181;28;20174;-74
2023/07/17 11:18:24;;;;;;;4.43;2.75;;;;;;;;;;5015151;28;20182;-75
2023/07/17 11:21:28;;;;;;;5.93;2.80;;;;;;;;;;5014972;28;20222;-76
2023/07/17 11:24:33;;;;;;;3.45;2.70;;;;;;;;;;5015211;28;20202;-76
2023/07/17 11:27:40;;;;;;;6.28;2.72;;;;;;;;;;5002900;28;20197;-76
2023/07/17 11:30:44;;;;;;;6.18;2.63;;;;;;;;;;5014958;28;20221;-76
2023/07/17 11:33:58;;;;;;;5.65;2.40;;;;;;;;;;5015123;28;20181;-76
2023/07/17 11:37:03;;;;;;;5.95;2.60;;;;;;;;;;5014804;28;20178;-76
2023/07/17 11:40:08;;;;;;;5.70;2.85;;;;;;;;;;5014654;28;20178;-74
2023/07/17 11:43:12;;;;;;;3.25;2.33;;;;;;;;;;4991838;28;20181;-73
2023/07/17 11:46:16;;;;;;;4.80;2.63;;;;;;;;;;5002745;28;20213;-74
2023/07/17 11:49:21;;;;;;;5.18;2.25;;;;;;;;;;5014863;28;20182;-73
2023/07/17 11:52:25;;;;;;;5.63;2.75;;;;;;;;;;5014515;28;20573;-73
2023/07/17 11:55:36;;;;;;;9.10;3.17;;;;;;;;;;5014753;28;20632;-74
2023/07/17 11:58:50;;;;;;;4.22;2.42;;;;;;;;;;5014986;28;20186;-74
2023/07/17 12:01:54;;;;;;;3.70;2.90;;;;;;;;;;5014611;28;20217;-74
2023/07/17 12:05:02;;;;;;;4.68;2.38;;;;;;;;;;5014506;28;20209;-74
2023/07/17 12:08:07;;;;;;;7.72;2.90;;;;;;;;;;5013296;28;20197;-74
2023/07/17 12:11:10;;;;;;;3.60;2.50;;;;;;;;;;5014054;28;20217;-73
2023/07/17 12:14:16;;;;;;;3.83;2.33;;;;;;;;;;5028866;22;20241;-72
2023/07/17 12:17:20;;;;;;;6.90;2.65;;;;;;;;;;5002317;28;20178;-72
2023/07/17 12:20:28;;;;;;;5.25;2.70;;;;;;;;;;5013937;28;20636;-72
2023/07/17 12:23:34;;;;;;;4.35;2.72;;;;;;;;;;5014294;28;20628;-72
2023/07/17 12:26:38;;;;;;;5.47;2.90;;;;;;;;;;5002076;28;20174;-72
2023/07/17 12:29:42;;;;;;;4.50;2.45;;;;;;;;;;5002000;28;20629;-73
2023/07/17 12:32:46;;;;;;;4.05;2.63;;;;;;;;;;5013734;28;20636;-73
2023/07/17 12:35:50;;;;;;;3.95;2.58;;;;;;;;;;5013632;28;20178;-72
2023/07/17 12:39:11;;;;;;;4.15;2.58;;;;;;;;;;5013716;28;20173;-73
2023/07/17 12:42:15;;;;;;;3.97;2.60;;;;;;;;;;5013721;28;20213;-73
2023/07/17 12:45:19;;;;;;;5.43;2.72;;;;;;;;;;5013386;28;20209;-73
2023/07/17 12:48:23;;;;;;;5.30;2.65;;;;;;;;;;5013513;28;20185;-73
2023/07/17 12:51:27;;;;;;;4.72;2.70;;;;;;;;;;5013290;28;20221;-73
2023/07/17 12:54:31;;;;;;;5.93;2.83;;;;;;;;;;5013616;28;20194;-72
2023/07/17 12:57:35;;;;;;;4.80;2.90;;;;;;;;;;5013415;28;20186;-73
2023/07/17 13:00:39;;;;;;;4.20;2.50;;;;;;;;;;5013288;28;20217;-72
2023/07/17 13:03:43;;;;;;;4.95;2.60;;;;;;;;;;5013278;28;20186;-72
2023/07/17 13:06:47;;;;;;;4.93;2.45;;;;;;;;;;4990079;28;20648;-73
2023/07/17 13:09:51;;;;;;;3.72;2.40;;;;;;;;;;4990226;28;20522;-73
2023/07/17 13:12:57;;;;;;;6.57;2.85;;;;;;;;;;5013088;28;20201;-73
2023/07/17 13:16:02;;;;;;;6.85;2.90;;;;;;;;;;5013728;28;20617;-72
2023/07/17 13:19:06;;;;;;;6.13;2.65;;;;;;;;;;5014690;28;20186;-73
2023/07/17 13:22:11;;;;;;;4.60;2.80;;;;;;;;;;5017143;28;20565;-73
2023/07/17 13:25:15;;;;;;;4.68;2.60;;;;;;;;;;5005396;28;20205;-73
2023/07/17 13:28:19;;;;;;;4.20;2.78;;;;;;;;;;5016994;28;20197;-73
2023/07/17 13:31:23;;;;;;;5.10;2.60;;;;;;;;;;5016925;28;20576;-73
2023/07/17 13:34:28;;;;;;;3.78;2.75;;;;;;;;;;5017077;28;20527;-73
2023/07/17 13:37:32;;;;;;;5.93;2.70;;;;;;;;;;5017173;28;20178;-73
2023/07/17 13:40:36;;;;;;;6.28;3.10;;;;;;;;;;5017014;28;20181;-73
2023/07/17 13:43:40;;;;;;;5.30;2.65;;;;;;;;;;5004812;28;20198;-73
2023/07/17 13:46:47;;;;;;;4.30;2.80;;;;;;;;;;5016871;28;20217;-74
2023/07/17 13:49:51;;;;;;;5.22;2.83;;;;;;;;;;5016808;28;20182;-74
2023/07/17 13:52:56;;;;;;;3.63;2.63;;;;;;;;;;5017089;28;20181;-74
2023/07/17 13:56:00;;;;;;;5.20;2.70;;;;;;;;;;5016926;28;20174;-74
2023/07/17 13:59:07;;;;;;;3.13;2.75;;;;;;;;;;5004564;28;20178;-74
2023/07/17 14:02:12;;;;;;;4.93;2.97;;;;;;;;;;5016972;28;20218;-74
2023/07/17 14:05:16;;;;;;;5.65;2.83;;;;;;;;;;5004787;28;20213;-73
2023/07/17 14:08:20;;;;;;;5.78;2.72;;;;;;;;;;5005013;28;20174;-73
2023/07/17 14:11:24;;;;;;;5.57;2.90;;;;;;;;;;5016628;28;20217;-74
2023/07/17 14:14:29;;;;;;;5.13;2.70;;;;;;;;;;5016480;28;20680;-73
2023/07/17 14:17:33;;;;;;;5.03;3.05;;;;;;;;;;5004951;28;20178;-73
2023/07/17 14:20:37;;;;;;;4.53;2.60;;;;;;;;;;5016577;28;20514;-73
2023/07/17 14:23:42;;;;;;;6.55;3.08;;;;;;;;;;5016384;28;20521;-73
2023/07/17 14:26:46;;;;;;;4.20;2.97;;;;;;;;;;5004450;28;20206;-73
2023/07/17 14:29:50;;;;;;;4.50;2.90;;;;;;;;;;5015850;28;20529;-73
2023/07/17 14:32:55;;;;;;;4.30;2.88;;;;;;;;;;5016290;28;20181;-73
2023/07/17 14:35:59;;;;;;;5.93;2.88;;;;;;;;;;5016096;28;20512;-74
2023/07/17 14:39:03;;;;;;;4.88;2.90;;;;;;;;;;5015928;28;20182;-73
2023/07/17 14:42:07;;;;;;;3.60;3.00;;;;;;;;;;5015853;28;20217;-73
2023/07/17 14:45:11;;;;;;;12.25;2.97;;;;;;;;;;4992575;28;20273;-73
2023/07/17 14:48:16;;;;;;;5.57;2.97;;;;;;;;;;5015719;28;20205;-73
2023/07/17 14:51:20;;;;;;;8.65;3.20;;;;;;;;;;5015609;28;20221;-73
2023/07/17 14:54:24;;;;;;;5.05;2.88;;;;;;;;;;5015825;28;20632;-73
2023/07/17 14:57:28;;;;;;;5.18;3.10;;;;;;;;;;5003630;28;20178;-73
2023/07/17 15:00:32;;;;;;;6.00;2.92;;;;;;;;;;5015319;28;20273;-73
2023/07/17 15:03:36;;;;;;;4.03;2.65;;;;;;;;;;5015301;28;20186;-73
2023/07/17 15:06:40;;;;;;;4.35;2.97;;;;;;;;;;5003269;28;20209;-74
2023/07/17 15:09:44;;;;;;;3.33;2.83;;;;;;;;;;5015494;28;20182;-74
2023/07/17 15:12:48;;;;;;;4.38;2.97;;;;;;;;;;5015172;28;20206;-74
2023/07/17 15:15:53;;;;;;;3.22;2.80;;;;;;;;;;5015428;28;20521;-74
2023/07/17 15:18:57;;;;;;;3.85;2.65;;;;;;;;;;5002905;28;20629;-73
2023/07/17 15:22:01;;;;;;;4.22;3.20;;;;;;;;;;5014878;28;20708;-73
2023/07/17 15:25:06;;;;;;;4.38;2.80;;;;;;;;;;5002933;28;20197;-73
2023/07/17 15:28:10;;;;;;;3.40;3.03;;;;;;;;;;5003028;28;20173;-73
2023/07/17 15:31:14;;;;;;;4.68;3.15;;;;;;;;;;5014889;28;20221;-73
2023/07/17 15:34:18;;;;;;;5.25;2.88;;;;;;;;;;5015107;28;20182;-73
2023/07/17 15:37:22;;;;;;;6.15;3.33;;;;;;;;;;5014647;28;20489;-73
2023/07/17 15:40:26;;;;;;;4.15;3.30;;;;;;;;;;5003091;28;20182;-73
2023/07/17 15:43:31;;;;;;;5.30;3.03;;;;;;;;;;5014437;28;20178;-73
2023/07/17 15:46:35;;;;;;;5.57;3.00;;;;;;;;;;5002405;28;20225;-73
2023/07/17 15:49:39;;;;;;;4.07;3.25;;;;;;;;;;5014454;28;20181;-73
2023/07/17 15:52:44;;;;;;;5.20;2.90;;;;;;;;;;5014508;28;20182;-73
2023/07/17 15:55:48;;;;;;;7.40;3.08;;;;;;;;;;5014642;28;20182;-73
2023/07/17 15:58:52;;;;;;;4.90;3.22;;;;;;;;;;5014335;28;20182;-73
2023/07/17 16:01:57;;;;;;;5.45;3.28;;;;;;;;;;5014328;28;20561;-72
2023/07/17 16:05:02;;;;;;;5.07;3.35;;;;;;;;;;5014158;28;20201;-73
2023/07/17 16:08:06;;;;;;;3.47;3.00;;;;;;;;;;5002300;28;20174;-73
2023/07/17 16:11:10;;;;;;;5.53;3.00;;;;;;;;;;5001966;28;20702;-73
2023/07/17 16:14:14;;;;;;;4.40;3.08;;;;;;;;;;5013950;28;20207;-73
2023/07/17 16:17:18;;;;;;;4.63;3.08;;;;;;;;;;5014328;28;20204;-72
2023/07/17 16:20:22;;;;;;;4.78;3.30;;;;;;;;;;5014099;28;20175;-73
2023/07/17 16:23:27;;;;;;;3.92;2.85;;;;;;;;;;5001752;28;20197;-72
2023/07/17 16:26:31;;;;;;;4.22;2.85;;;;;;;;;;5013806;28;20221;-73
2023/07/17 16:29:35;;;;;;;5.65;3.42;;;;;;;;;;5001667;28;20189;-72
2023/07/17 16:32:39;;;;;;;5.20;2.95;;;;;;;;;;5013887;28;20225;-73
2023/07/17 16:35:43;;;;;;;5.35;3.10;;;;;;;;;;5001742;28;20201;-73
2023/07/17 16:38:47;;;;;;;6.38;3.28;;;;;;;;;;5014187;28;20186;-72
2023/07/17 16:41:51;;;;;;;6.45;3.13;;;;;;;;;;5013682;28;20217;-72
2023/07/17 16:44:55;;;;;;;5.70;3.08;;;;;;;;;;5013612;28;20552;-72
2023/07/17 16:48:00;;;;;;;7.13;3.45;;;;;;;;;;5013730;28;20200;-73
2023/07/17 16:51:04;;;;;;;6.80;2.97;;;;;;;;;;5013470;28;20225;-73
2023/07/17 16:54:08;;;;;;;4.90;3.40;;;;;;;;;;5013145;28;20342;-73
2023/07/17 16:57:12;;;;;;;6.18;3.50;;;;;;;;;;5013317;28;20631;-73
2023/07/17 17:00:19;;;;;;;4.60;2.63;;;;;;;;;;5013620;28;20184;-73
2023/07/17 17:03:23;;;;;;;4.47;3.22;;;;;;;;;;5001257;28;20183;-73
2023/07/17 17:06:27;;;;;;;5.65;3.40;;;;;;;;;;5013188;28;20234;-73
2023/07/17 17:09:32;;;;;;;4.40;3.50;;;;;;;;;;5013544;28;20181;-73
2023/07/17 17:12:36;;;;;;;6.55;3.53;;;;;;;;;;5013197;28;20216;-73
2023/07/17 17:15:40;;;;;;;6.38;3.10;;;;;;;;;;5013176;28;20183;-73
2023/07/17 17:18:44;;;;;;;5.55;3.13;;;;;;;;;;5013478;28;20512;-73
2023/07/17 17:21:49;;;;;;;6.72;3.33;;;;;;;;;;5013260;28;20225;-73
2023/07/17 17:24:52;;;;;;;4.93;3.67;;;;;;;;;;5013082;28;20183;-73
2023/07/17 17:27:57;;;;;;;4.13;3.17;;;;;;;;;;5013087;28;20226;-73
2023/07/17 17:31:01;;;;;;;4.88;3.17;;;;;;;;;;5013242;28;20570;-73
2023/07/17 17:34:05;;;;;;;6.57;3.15;;;;;;;;;;5001629;28;20183;-73
2023/07/17 17:37:10;;;;;;;5.80;3.80;;;;;;;;;;5013019;28;20176;-72
2023/07/17 17:40:14;;;;;;;10.77;4.40;;;;;;;;;;5012992;28;20546;-72
2023/07/17 17:43:18;;;;;;;9.95;3.78;;;;;;;;;;5012892;28;20179;-72
2023/07/17 17:46:22;;;;;;;6.63;4.50;;;;;;;;;;5012686;28;20208;-73
2023/07/17 17:49:26;;;;;;;6.38;3.50;;;;;;;;;;5012965;28;20656;-72
2023/07/17 17:52:31;;;;;;;9.95;3.70;;;;;;;;;;5001488;28;20219;-72
2023/07/17 17:55:35;;;;;;;5.22;3.70;;;;;;;;;;5001497;28;20638;-72
2023/07/17 17:58:39;;;;;;;6.47;3.67;;;;;;;;;;5000757;28;20198;-72
2023/07/17 18:01:44;;;;;;;5.55;3.65;;;;;;;;;;5012613;28;20221;-74
2023/07/17 18:04:48;;;;;;;4.55;3.50;;;;;;;;;;5013576;28;20181;-73
2023/07/17 18:07:52;;;;;;;6.78;3.50;;;;;;;;;;5016317;28;20223;-72
2023/07/17 18:10:56;;;;;;;9.77;3.50;;;;;;;;;;5016306;28;20218;-72
2023/07/17 18:14:07;;;;;;;5.47;3.65;;;;;;;;;;5018698;22;20710;-73
2023/07/17 18:17:11;;;;;;;6.00;3.60;;;;;;;;;;5016894;28;20284;-73
2023/07/17 18:20:15;;;;;;;4.75;3.50;;;;;;;;;;5016533;28;20182;-73
2023/07/17 18:23:19;;;;;;;7.93;3.75;;;;;;;;;;5004674;28;20522;-73
2023/07/17 18:26:23;;;;;;;7.43;3.42;;;;;;;;;;5004425;28;20219;-74
2023/07/17 18:29:28;;;;;;;6.15;3.83;;;;;;;;;;5016097;28;20663;-73